Time;durP1;ratioP1;P1;durP2;ratioP2;P2;SDS_P1;SDS_P2;PMS_P1;PMS_P2;Temp;Humidity;BMP_temperature;BMP_pressure;BME280_temperature;BME280_humidity;BME280_pressure;Samples;Min_cycle;Max_cycle;Signal;HPM_P1;HPM_P2
2024/01/09 00:01:10;;;;;;;15.00;10.80;;;-2.80;33.10;;;;;;5096084;28;20888;-76
2024/01/09 00:03:35;;;;;;;19.30;11.20;;;-2.90;34.50;;;;;;5077924;28;20377;-76
2024/01/09 00:06:01;;;;;;;14.67;10.03;;;-3.10;35.50;;;;;;5077750;28;20401;-75
2024/01/09 00:08:26;;;;;;;14.32;10.00;;;-3.10;35.20;;;;;;5095552;28;20868;-75
2024/01/09 00:10:52;;;;;;;14.23;9.60;;;-2.90;34.70;;;;;;5095105;28;20731;-75
2024/01/09 00:13:17;;;;;;;14.30;9.60;;;-2.90;33.80;;;;;;5094747;28;21071;-75
2024/01/09 00:15:44;;;;;;;14.07;10.18;;;-3.00;34.30;;;;;;5094184;28;20767;-76
2024/01/09 00:18:09;;;;;;;13.63;9.68;;;-3.00;34.40;;;;;;5076311;28;20390;-77
2024/01/09 00:20:35;;;;;;;13.30;9.53;;;-3.00;34.50;;;;;;5095642;28;20424;-75
2024/01/09 00:23:00;;;;;;;14.10;10.30;;;-2.90;33.90;;;;;;5096024;28;20446;-77
2024/01/09 00:25:26;;;;;;;13.10;9.82;;;-3.00;34.30;;;;;;5095241;28;20469;-75
2024/01/09 00:27:52;;;;;;;14.17;9.80;;;-3.10;35.00;;;;;;5094091;28;20417;-76
2024/01/09 00:30:19;;;;;;;15.15;10.20;;;-3.10;35.30;;;;;;5094826;28;20382;-75
2024/01/09 00:32:47;;;;;;;14.18;10.07;;;-3.00;34.90;;;;;;5094264;28;20764;-75
2024/01/09 00:35:14;;;;;;;14.13;9.52;;;-2.90;35.00;;;;;;5094065;28;20382;-75
2024/01/09 00:37:40;;;;;;;12.17;9.50;;;-3.10;35.20;;;;;;5094262;28;20409;-76
2024/01/09 00:40:07;;;;;;;12.80;9.45;;;-3.10;36.20;;;;;;5094737;28;20397;-75
2024/01/09 00:42:33;;;;;;;12.68;8.70;;;-3.00;35.50;;;;;;5093334;28;20740;-75
2024/01/09 00:45:00;;;;;;;11.70;8.32;;;-3.00;34.30;;;;;;5094772;28;20413;-76
2024/01/09 00:47:27;;;;;;;14.10;9.23;;;-2.90;33.70;;;;;;5094908;28;20448;-75
2024/01/09 00:49:52;;;;;;;14.80;9.85;;;-3.00;33.60;;;;;;5095328;28;20484;-77
2024/01/09 00:52:18;;;;;;;14.63;10.03;;;-3.10;35.00;;;;;;5095570;28;20378;-77
2024/01/09 00:54:43;;;;;;;12.17;9.30;;;-3.10;35.00;;;;;;5095072;28;20377;-76
2024/01/09 00:57:09;;;;;;;13.00;8.80;;;-3.00;34.10;;;;;;5078305;28;20471;-76
2024/01/09 00:59:35;;;;;;;13.60;8.90;;;-3.10;33.80;;;;;;5096995;28;20382;-75
2024/01/09 01:02:00;;;;;;;15.75;10.73;;;-3.00;34.40;;;;;;5096628;28;21184;-76
2024/01/09 01:04:26;;;;;;;13.83;9.73;;;-3.10;33.90;;;;;;5095260;28;20425;-77
2024/01/09 01:06:51;;;;;;;12.67;9.43;;;-3.20;34.80;;;;;;5094308;28;20421;-76
2024/01/09 01:09:17;;;;;;;14.00;9.38;;;-3.20;35.80;;;;;;5094481;28;20400;-75
2024/01/09 01:11:42;;;;;;;13.57;9.63;;;-3.10;36.20;;;;;;5076224;28;20375;-75
2024/01/09 01:14:08;;;;;;;15.73;10.30;;;-3.10;36.30;;;;;;5094938;28;20411;-75
2024/01/09 01:16:33;;;;;;;14.68;9.25;;;-3.10;37.40;;;;;;5094579;28;20949;-75
2024/01/09 01:18:59;;;;;;;13.43;9.27;;;-3.10;36.00;;;;;;5077213;28;20514;-75
2024/01/09 01:21:25;;;;;;;14.17;9.90;;;-3.20;36.90;;;;;;5095811;28;20379;-75
2024/01/09 01:23:50;;;;;;;13.57;8.52;;;-3.20;37.30;;;;;;5096064;28;20435;-76
2024/01/09 01:26:16;;;;;;;15.27;9.63;;;-3.10;36.00;;;;;;5096616;28;20393;-75
2024/01/09 01:28:42;;;;;;;12.47;8.83;;;-3.10;34.70;;;;;;5095799;28;20374;-75
2024/01/09 01:31:07;;;;;;;12.00;8.40;;;-3.30;36.00;;;;;;5093748;28;20386;-75
2024/01/09 01:33:33;;;;;;;12.10;8.18;;;-3.10;34.10;;;;;;5093702;28;20384;-76
2024/01/09 01:35:59;;;;;;;12.35;8.30;;;-3.10;34.10;;;;;;5077286;28;20433;-75
2024/01/09 01:38:25;;;;;;;12.97;8.73;;;-3.10;34.90;;;;;;5093983;28;20390;-76
2024/01/09 01:40:51;;;;;;;13.48;8.60;;;-3.20;35.60;;;;;;5076156;28;20439;-74
2024/01/09 01:43:16;;;;;;;10.57;8.20;;;-3.20;34.50;;;;;;5095998;28;20386;-76
2024/01/09 01:45:42;;;;;;;15.90;8.83;;;-3.20;34.30;;;;;;5094378;28;20900;-77
2024/01/09 01:48:09;;;;;;;14.48;9.43;;;-3.20;35.80;;;;;;5075990;28;20394;-76
2024/01/09 01:50:36;;;;;;;12.23;8.30;;;-3.30;35.40;;;;;;5076902;28;20438;-76
2024/01/09 01:53:04;;;;;;;12.20;8.75;;;-3.20;34.20;;;;;;5095789;28;20389;-75
2024/01/09 01:55:30;;;;;;;13.25;8.93;;;-3.20;34.80;;;;;;5094546;28;20388;-76
2024/01/09 01:57:58;;;;;;;12.13;8.98;;;-3.30;36.20;;;;;;5076137;28;20393;-76
2024/01/09 02:00:25;;;;;;;12.10;8.80;;;-3.30;35.00;;;;;;5075976;28;20454;-75
2024/01/09 02:02:53;;;;;;;12.50;8.55;;;-3.30;35.90;;;;;;5094410;28;20427;-76
2024/01/09 02:05:21;;;;;;;10.73;7.68;;;-3.20;33.70;;;;;;5102606;28;20948;-75
2024/01/09 02:07:47;;;;;;;12.15;8.57;;;-3.20;33.10;;;;;;5084199;28;20386;-76
2024/01/09 02:10:13;;;;;;;11.30;8.17;;;-3.20;33.30;;;;;;5096366;28;20370;-75
2024/01/09 02:12:39;;;;;;;12.20;8.15;;;-3.20;33.70;;;;;;5099412;28;20386;-77
2024/01/09 02:15:05;;;;;;;10.30;7.93;;;-3.30;34.40;;;;;;5097915;28;20818;-76
2024/01/09 02:17:31;;;;;;;10.25;7.70;;;-3.30;33.80;;;;;;5098284;28;20389;-75
2024/01/09 02:19:59;;;;;;;11.02;7.85;;;-3.30;33.20;;;;;;5097638;28;20393;-74
2024/01/09 02:22:24;;;;;;;10.97;7.57;;;-3.30;34.10;;;;;;5096067;28;20389;-74
2024/01/09 02:24:50;;;;;;;12.45;7.85;;;-3.30;34.30;;;;;;5079244;28;20481;-75
2024/01/09 02:27:37;;;;;;;11.20;7.70;;;-3.30;33.10;;;;;;5095430;28;20427;-74
2024/01/09 02:30:03;;;;;;;11.23;7.88;;;-3.40;34.40;;;;;;5095373;28;20736;-75
2024/01/09 02:32:29;;;;;;;12.57;7.82;;;-3.40;34.40;;;;;;5082603;28;20385;-75
2024/01/09 02:34:56;;;;;;;11.32;7.60;;;-3.30;34.80;;;;;;5099505;28;20389;-74
2024/01/09 02:37:21;;;;;;;12.00;7.95;;;-3.30;34.70;;;;;;5098163;28;20394;-75
2024/01/09 02:39:47;;;;;;;11.73;7.90;;;-3.30;34.60;;;;;;5096800;28;20393;-75
2024/01/09 02:42:13;;;;;;;12.98;8.63;;;-3.40;34.00;;;;;;5099504;28;20382;-75
2024/01/09 02:44:38;;;;;;;11.95;8.43;;;-3.30;35.80;;;;;;5095164;28;20393;-76
2024/01/09 02:47:04;;;;;;;10.73;7.68;;;-3.40;34.60;;;;;;5094965;28;20895;-73
2024/01/09 02:49:29;;;;;;;11.57;7.90;;;-3.40;33.50;;;;;;5095228;28;20888;-75
2024/01/09 02:51:56;;;;;;;11.20;7.77;;;-3.40;33.70;;;;;;5076226;28;20388;-75
2024/01/09 02:54:21;;;;;;;10.13;7.05;;;-3.40;34.00;;;;;;5075975;28;20386;-75
2024/01/09 02:56:47;;;;;;;10.90;7.80;;;-3.60;34.90;;;;;;5094322;28;20408;-75
2024/01/09 02:59:13;;;;;;;10.98;7.30;;;-3.50;35.40;;;;;;5095213;28;20393;-73
2024/01/09 03:01:38;;;;;;;13.43;8.77;;;-3.50;35.40;;;;;;5094419;28;20597;-74
2024/01/09 03:04:04;;;;;;;10.23;7.40;;;-3.50;35.70;;;;;;5094356;28;20401;-75
2024/01/09 03:06:30;;;;;;;10.32;7.10;;;-3.40;34.20;;;;;;5094389;28;20465;-75
2024/01/09 03:08:55;;;;;;;11.53;7.57;;;-3.30;33.00;;;;;;5075770;28;20398;-74
2024/01/09 03:11:21;;;;;;;12.50;8.13;;;-3.50;33.30;;;;;;5093907;28;20385;-75
2024/01/09 03:13:46;;;;;;;9.77;7.10;;;-3.60;33.90;;;;;;5094229;28;20400;-76
2024/01/09 03:16:13;;;;;;;11.57;8.30;;;-3.70;33.60;;;;;;5093221;28;20380;-75
2024/01/09 03:18:43;;;;;;;10.02;7.45;;;-3.70;34.90;;;;;;5093753;28;20490;-75
2024/01/09 03:21:10;;;;;;;10.32;7.45;;;-3.70;36.40;;;;;;5075878;28;20455;-75
2024/01/09 03:23:36;;;;;;;11.43;7.07;;;-3.60;34.60;;;;;;5095909;28;20435;-76
2024/01/09 03:26:01;;;;;;;11.13;7.35;;;-3.60;34.50;;;;;;5099914;28;20398;-76
2024/01/09 03:28:28;;;;;;;10.67;7.47;;;-3.50;34.40;;;;;;5095380;28;20390;-74
2024/01/09 03:30:54;;;;;;;9.13;6.75;;;-3.60;34.70;;;;;;5094115;28;20378;-73
2024/01/09 03:33:19;;;;;;;13.40;8.50;;;-3.50;33.20;;;;;;5093579;28;20374;-74
2024/01/09 03:35:45;;;;;;;10.70;7.30;;;-3.50;33.00;;;;;;5093545;28;20382;-74
2024/01/09 03:38:12;;;;;;;12.43;7.50;;;-3.70;33.10;;;;;;5093232;28;20497;-76
2024/01/09 03:40:37;;;;;;;12.43;7.70;;;-3.80;33.90;;;;;;5093668;28;20386;-74
2024/01/09 03:43:05;;;;;;;13.57;9.02;;;-3.90;34.90;;;;;;5094125;28;20382;-74
2024/01/09 03:45:31;;;;;;;10.05;7.68;;;-4.00;35.70;;;;;;5094611;28;20578;-75
2024/01/09 03:47:57;;;;;;;10.67;7.40;;;-4.10;36.10;;;;;;5094328;28;20378;-74
2024/01/09 03:50:22;;;;;;;10.93;7.43;;;-4.00;35.90;;;;;;5095118;28;20445;-75
2024/01/09 03:52:48;;;;;;;12.45;7.82;;;-4.00;34.80;;;;;;5075177;28;20393;-75
2024/01/09 03:55:15;;;;;;;11.13;7.60;;;-3.80;34.40;;;;;;5075266;28;21156;-75
2024/01/09 03:57:41;;;;;;;11.38;7.57;;;-3.80;34.40;;;;;;5093134;28;20879;-75
2024/01/09 04:00:07;;;;;;;11.95;7.80;;;-3.70;33.90;;;;;;5093287;28;20378;-75
2024/01/09 04:02:32;;;;;;;11.73;8.18;;;-3.60;32.60;;;;;;5093115;28;20390;-75
2024/01/09 04:04:58;;;;;;;10.25;7.30;;;-3.60;33.20;;;;;;5092486;28;20413;-74
2024/01/09 04:07:23;;;;;;;12.13;7.40;;;-3.60;32.50;;;;;;5093129;28;20426;-75
2024/01/09 04:09:49;;;;;;;10.68;7.22;;;-3.70;33.20;;;;;;5092642;28;20373;-74
2024/01/09 04:12:15;;;;;;;12.57;8.30;;;-3.70;32.50;;;;;;5092527;28;20382;-74
2024/01/09 04:14:40;;;;;;;9.33;6.93;;;-3.90;33.40;;;;;;5092332;28;20394;-75
2024/01/09 04:17:06;;;;;;;10.05;6.90;;;-3.70;33.40;;;;;;5093576;28;20438;-75
2024/01/09 04:19:31;;;;;;;8.67;6.80;;;-3.60;32.50;;;;;;5074864;28;20410;-74
2024/01/09 04:21:57;;;;;;;11.30;7.67;;;-3.60;31.90;;;;;;5093403;28;20386;-75
2024/01/09 04:24:22;;;;;;;9.90;7.20;;;-3.60;31.90;;;;;;5092477;28;20396;-77
2024/01/09 04:26:48;;;;;;;12.17;7.43;;;-3.70;31.80;;;;;;5073790;28;20391;-75
2024/01/09 04:29:13;;;;;;;11.00;7.60;;;-3.70;32.20;;;;;;5090360;28;20386;-74
2024/01/09 04:31:39;;;;;;;11.75;7.60;;;-3.70;32.50;;;;;;5090916;28;20370;-74
2024/01/09 04:34:04;;;;;;;10.23;7.43;;;-3.70;33.10;;;;;;5090959;28;20757;-74
2024/01/09 04:36:30;;;;;;;10.90;7.47;;;-3.80;33.10;;;;;;5072823;28;20794;-74
2024/01/09 04:39:00;;;;;;;9.82;7.65;;;-3.70;32.30;;;;;;5090942;28;20382;-74
2024/01/09 04:41:26;;;;;;;11.95;8.02;;;-3.70;32.40;;;;;;5072817;28;20390;-75
2024/01/09 04:43:51;;;;;;;10.83;7.60;;;-3.70;32.70;;;;;;5091168;28;20678;-74
2024/01/09 04:46:17;;;;;;;10.43;7.28;;;-3.80;32.80;;;;;;5090993;28;20828;-75
2024/01/09 04:48:43;;;;;;;11.70;7.30;;;-3.70;32.40;;;;;;5072777;28;20423;-75
2024/01/09 04:51:08;;;;;;;12.27;7.70;;;-3.80;32.70;;;;;;5090873;28;20411;-74
2024/01/09 04:53:34;;;;;;;10.68;7.65;;;-3.70;32.80;;;;;;5090876;28;20451;-74
2024/01/09 04:56:00;;;;;;;11.10;7.65;;;-3.80;33.00;;;;;;5090630;28;20473;-75
2024/01/09 04:58:26;;;;;;;13.03;7.97;;;-3.70;33.40;;;;;;5072434;28;20454;-75
2024/01/09 05:00:51;;;;;;;11.35;7.53;;;-3.80;33.40;;;;;;5072628;28;20900;-76
2024/01/09 05:03:17;;;;;;;11.83;7.60;;;-3.80;33.50;;;;;;5090846;28;20792;-75
2024/01/09 05:05:42;;;;;;;11.30;7.57;;;-3.80;33.40;;;;;;5090630;28;20908;-74
2024/01/09 05:08:08;;;;;;;12.55;8.38;;;-3.70;33.20;;;;;;5090633;28;20463;-75
2024/01/09 05:10:33;;;;;;;10.68;7.63;;;-3.90;33.80;;;;;;5090649;28;20382;-75
2024/01/09 05:12:59;;;;;;;11.20;7.43;;;-3.90;33.70;;;;;;5072453;28;20791;-75
2024/01/09 05:15:25;;;;;;;11.77;8.25;;;-3.90;34.00;;;;;;5090979;28;20390;-74
2024/01/09 05:17:50;;;;;;;10.83;8.10;;;-3.80;33.20;;;;;;5090206;28;20473;-74
2024/01/09 05:20:16;;;;;;;11.50;7.50;;;-3.90;33.30;;;;;;5090542;28;20444;-74
2024/01/09 05:22:42;;;;;;;10.73;7.50;;;-4.10;33.90;;;;;;5090297;28;20408;-73
2024/01/09 05:25:08;;;;;;;10.90;7.83;;;-3.90;34.10;;;;;;5091431;28;20471;-74
2024/01/09 05:27:34;;;;;;;13.20;8.40;;;-3.80;33.20;;;;;;5090367;28;20385;-75
2024/01/09 05:30:00;;;;;;;11.00;7.70;;;-3.80;33.30;;;;;;5090410;28;20370;-74
2024/01/09 05:32:25;;;;;;;12.20;7.68;;;-3.80;33.10;;;;;;5091185;28;20389;-75
2024/01/09 05:34:51;;;;;;;13.57;7.90;;;-3.80;33.40;;;;;;5090581;28;20382;-74
2024/01/09 05:37:17;;;;;;;11.90;8.20;;;-3.80;33.40;;;;;;5090682;28;20470;-74
2024/01/09 05:39:46;;;;;;;15.50;8.30;;;-3.80;33.20;;;;;;5092197;28;20880;-75
2024/01/09 05:42:12;;;;;;;12.25;8.30;;;-4.00;33.60;;;;;;5094656;28;20872;-75
2024/01/09 05:44:38;;;;;;;10.50;7.70;;;-4.10;34.20;;;;;;5095228;28;20501;-75
2024/01/09 05:47:04;;;;;;;11.50;8.00;;;-4.00;34.50;;;;;;5095913;28;20392;-75
2024/01/09 05:49:29;;;;;;;11.90;8.40;;;-4.00;34.90;;;;;;5095925;28;20382;-76
2024/01/09 05:51:55;;;;;;;12.05;8.05;;;-4.10;34.30;;;;;;5095999;28;20378;-76
2024/01/09 05:54:20;;;;;;;13.18;8.50;;;-4.10;35.20;;;;;;5096765;28;20389;-75
2024/01/09 05:56:46;;;;;;;12.87;8.23;;;-4.00;34.70;;;;;;5104657;28;20382;-74
2024/01/09 05:59:12;;;;;;;12.60;8.40;;;-4.00;35.00;;;;;;5088222;28;20390;-74
2024/01/09 06:01:37;;;;;;;12.37;8.23;;;-4.00;34.80;;;;;;5106688;28;20415;-76
2024/01/09 06:04:03;;;;;;;14.65;9.00;;;-4.20;34.50;;;;;;5106157;28;20484;-75
2024/01/09 06:06:29;;;;;;;13.57;8.60;;;-4.40;35.60;;;;;;5096073;28;20388;-75
2024/01/09 06:08:55;;;;;;;13.05;8.52;;;-4.30;35.80;;;;;;5094204;28;20474;-76
2024/01/09 06:11:20;;;;;;;14.98;8.93;;;-4.20;35.50;;;;;;5094589;28;20413;-74
2024/01/09 06:13:46;;;;;;;12.23;8.18;;;-4.30;35.40;;;;;;5095016;28;20380;-74
2024/01/09 06:16:12;;;;;;;13.97;9.57;;;-4.00;34.40;;;;;;5097170;28;20389;-74
2024/01/09 06:18:37;;;;;;;13.43;8.60;;;-3.80;33.60;;;;;;5094845;28;20952;-74
2024/01/09 06:21:03;;;;;;;11.87;8.33;;;-3.80;33.60;;;;;;5094243;28;20413;-75
2024/01/09 06:23:29;;;;;;;13.02;8.80;;;-3.90;33.60;;;;;;5094851;28;20472;-75
2024/01/09 06:25:54;;;;;;;13.97;9.47;;;-4.10;34.20;;;;;;5095673;28;20425;-75
2024/01/09 06:28:20;;;;;;;12.95;8.50;;;-4.00;34.90;;;;;;5094660;28;20751;-74
2024/01/09 06:30:46;;;;;;;12.23;8.50;;;-4.00;34.40;;;;;;5094395;28;20370;-77
2024/01/09 06:33:11;;;;;;;13.30;9.57;;;-3.90;34.30;;;;;;5076259;28;20382;-75
2024/01/09 06:35:37;;;;;;;12.02;8.50;;;-4.00;34.30;;;;;;5094865;28;20386;-76
2024/01/09 06:38:03;;;;;;;13.33;8.90;;;-3.90;34.00;;;;;;5095195;28;20745;-75
2024/01/09 06:40:29;;;;;;;14.80;9.43;;;-3.90;34.20;;;;;;5094866;28;20386;-75
2024/01/09 06:42:54;;;;;;;13.30;9.07;;;-3.90;34.20;;;;;;5093886;28;20817;-76
2024/01/09 06:45:20;;;;;;;13.60;9.20;;;-4.00;34.40;;;;;;5093961;28;20398;-74
2024/01/09 06:47:45;;;;;;;12.87;8.40;;;-4.00;34.70;;;;;;5093269;28;20431;-77
2024/01/09 06:50:11;;;;;;;14.85;9.05;;;-4.10;35.70;;;;;;5093854;28;20406;-76
2024/01/09 06:52:38;;;;;;;13.23;8.32;;;-4.00;35.10;;;;;;5093300;28;20400;-76
2024/01/09 06:55:04;;;;;;;13.68;9.60;;;-4.00;34.20;;;;;;5093918;28;20386;-74
2024/01/09 06:57:29;;;;;;;12.30;8.50;;;-4.10;34.20;;;;;;5094086;28;20382;-74
2024/01/09 06:59:55;;;;;;;14.30;9.10;;;-4.10;35.70;;;;;;5075413;28;20386;-75
2024/01/09 07:02:21;;;;;;;13.43;8.90;;;-4.10;34.40;;;;;;5093949;28;20465;-78
2024/01/09 07:04:47;;;;;;;13.65;8.55;;;-4.10;34.70;;;;;;5076786;28;20402;-76
2024/01/09 07:07:12;;;;;;;12.50;8.77;;;-4.10;35.50;;;;;;5094071;28;20468;-75
2024/01/09 07:09:39;;;;;;;13.68;9.45;;;-4.10;36.00;;;;;;5095499;28;20390;-76
2024/01/09 07:12:05;;;;;;;13.63;9.07;;;-4.10;36.00;;;;;;5101293;28;20398;-76
2024/01/09 07:14:31;;;;;;;13.80;9.13;;;-4.00;35.00;;;;;;5103122;28;20482;-75
2024/01/09 07:16:57;;;;;;;13.80;8.88;;;-4.00;33.90;;;;;;5109833;28;20395;-75
2024/01/09 07:19:23;;;;;;;15.70;9.77;;;-4.00;34.30;;;;;;5093463;28;20414;-75
2024/01/09 07:21:49;;;;;;;12.95;9.25;;;-4.00;35.00;;;;;;5106029;28;20691;-76
2024/01/09 07:24:14;;;;;;;12.67;8.70;;;-4.00;35.00;;;;;;5093452;28;20409;-75
2024/01/09 07:26:41;;;;;;;11.57;8.50;;;-4.00;34.60;;;;;;5097448;28;20382;-75
2024/01/09 07:29:07;;;;;;;16.92;9.98;;;-3.90;34.60;;;;;;5101323;28;20747;-74
2024/01/09 07:31:32;;;;;;;16.93;10.70;;;-4.10;34.70;;;;;;5093322;28;20385;-75
2024/01/09 07:33:58;;;;;;;17.10;10.82;;;-4.30;35.70;;;;;;5092806;28;20385;-74
2024/01/09 07:36:23;;;;;;;14.70;9.33;;;-4.50;36.60;;;;;;5094688;28;20808;-76
2024/01/09 07:38:49;;;;;;;14.63;9.37;;;-4.30;36.90;;;;;;5113389;28;20734;-75
2024/01/09 07:41:17;;;;;;;13.68;9.30;;;-4.10;34.90;;;;;;5112631;28;20437;-75
2024/01/09 07:43:43;;;;;;;15.30;10.10;;;-3.90;34.60;;;;;;5098421;28;20387;-72
2024/01/09 07:46:10;;;;;;;13.35;9.50;;;-3.90;34.40;;;;;;5092307;28;20406;-70
2024/01/09 07:48:35;;;;;;;14.68;9.70;;;-4.00;34.60;;;;;;5092144;28;20385;-70
2024/01/09 07:51:01;;;;;;;14.50;9.17;;;-3.90;34.10;;;;;;5093190;28;20386;-70
2024/01/09 07:53:28;;;;;;;14.63;9.43;;;-3.90;33.70;;;;;;5093709;28;20384;-76
2024/01/09 07:55:54;;;;;;;15.10;9.43;;;-3.90;33.30;;;;;;5095305;28;20387;-76
2024/01/09 07:58:19;;;;;;;16.40;9.53;;;-3.90;33.50;;;;;;5112773;28;20388;-75
2024/01/09 08:00:46;;;;;;;13.48;9.20;;;-3.90;33.90;;;;;;5110362;28;20842;-75
2024/01/09 08:03:13;;;;;;;14.65;9.70;;;-3.90;33.50;;;;;;5109049;28;20424;-77
2024/01/09 08:05:39;;;;;;;14.30;9.30;;;-4.00;33.70;;;;;;5092382;28;20398;-75
2024/01/09 08:08:07;;;;;;;14.32;9.50;;;-4.00;33.80;;;;;;5091955;28;20541;-77
2024/01/09 08:10:32;;;;;;;13.70;8.93;;;-4.00;34.10;;;;;;5092357;28;20707;-76
2024/01/09 08:12:58;;;;;;;16.40;8.80;;;-4.00;34.40;;;;;;5092773;28;20770;-75
2024/01/09 08:15:24;;;;;;;13.97;8.93;;;-3.90;34.30;;;;;;5094651;28;20394;-75
2024/01/09 08:17:50;;;;;;;13.35;9.10;;;-4.00;34.20;;;;;;5092561;28;20460;-76
2024/01/09 08:20:16;;;;;;;12.75;9.00;;;-4.00;33.80;;;;;;5096772;22;20770;-71
2024/01/09 08:22:41;;;;;;;14.00;9.20;;;-3.90;33.90;;;;;;5071337;28;20878;-71
2024/01/09 08:25:07;;;;;;;14.23;9.20;;;-3.90;33.90;;;;;;5071045;28;20839;-71
2024/01/09 08:27:33;;;;;;;13.87;9.20;;;-3.90;34.10;;;;;;5070870;28;20406;-72
2024/01/09 08:29:58;;;;;;;14.20;9.67;;;-3.90;33.80;;;;;;5087008;28;21060;-73
2024/01/09 08:32:25;;;;;;;14.95;9.35;;;-3.90;33.80;;;;;;5090984;28;20713;-72
2024/01/09 08:34:50;;;;;;;13.67;9.57;;;-3.90;34.00;;;;;;5091060;28;20393;-72
2024/01/09 08:37:16;;;;;;;14.70;9.45;;;-3.90;33.90;;;;;;5091032;28;20390;-72
2024/01/09 08:39:42;;;;;;;14.40;9.63;;;-3.90;34.10;;;;;;5091146;28;20389;-72
2024/01/09 08:42:07;;;;;;;12.93;9.10;;;-3.90;33.80;;;;;;5091012;28;21019;-72
2024/01/09 08:44:33;;;;;;;14.45;9.52;;;-3.80;33.90;;;;;;5091058;28;20771;-72
2024/01/09 08:46:59;;;;;;;14.90;9.50;;;-3.80;33.70;;;;;;5091656;28;20386;-72
2024/01/09 08:49:25;;;;;;;13.60;10.00;;;-3.70;33.60;;;;;;5091405;28;20929;-73
2024/01/09 08:51:51;;;;;;;15.00;10.07;;;-3.70;33.00;;;;;;5091411;28;20486;-71
2024/01/09 08:54:16;;;;;;;16.20;9.23;;;-3.60;32.80;;;;;;5091390;28;20382;-71
2024/01/09 08:56:42;;;;;;;14.67;9.50;;;-3.60;33.10;;;;;;5072641;28;20812;-71
2024/01/09 08:59:09;;;;;;;16.88;10.00;;;-3.50;33.40;;;;;;5090690;28;20934;-72
2024/01/09 09:01:37;;;;;;;14.55;9.55;;;-3.40;33.10;;;;;;5090893;28;20414;-72
2024/01/09 09:04:03;;;;;;;12.90;9.52;;;-3.40;32.20;;;;;;5091202;28;20424;-72
2024/01/09 09:06:29;;;;;;;15.32;9.77;;;-3.40;32.50;;;;;;5091129;28;20449;-71
2024/01/09 09:08:54;;;;;;;15.52;9.70;;;-3.30;32.50;;;;;;5090504;28;20889;-71
2024/01/09 09:11:20;;;;;;;17.50;9.90;;;-3.20;31.70;;;;;;5090796;28;20387;-72
2024/01/09 09:13:46;;;;;;;16.50;9.60;;;-3.10;32.00;;;;;;5090524;28;20407;-71
2024/01/09 09:16:12;;;;;;;17.30;9.75;;;-3.00;31.10;;;;;;5091108;28;20405;-71
2024/01/09 09:18:38;;;;;;;15.10;9.90;;;-3.00;31.30;;;;;;5090918;28;20745;-72
2024/01/09 09:21:04;;;;;;;14.10;9.60;;;-3.00;31.50;;;;;;5091050;28;20456;-72
2024/01/09 09:23:30;;;;;;;13.95;10.20;;;-2.90;31.50;;;;;;5090765;28;20384;-72
2024/01/09 09:25:56;;;;;;;16.70;9.90;;;-2.90;30.30;;;;;;5090434;28;20483;-72
2024/01/09 09:28:22;;;;;;;16.98;10.73;;;-2.90;30.70;;;;;;5091913;28;20426;-72
2024/01/09 09:30:47;;;;;;;19.53;10.20;;;-2.90;31.20;;;;;;5090985;28;20435;-72
2024/01/09 09:33:13;;;;;;;11.88;9.18;;;-2.50;30.80;;;;;;5090346;28;20390;-71
2024/01/09 09:35:39;;;;;;;14.90;10.07;;;-1.90;28.30;;;;;;5090188;28;20467;-71
2024/01/09 09:38:04;;;;;;;13.57;10.30;;;-2.00;28.50;;;;;;5090335;28;20739;-71
2024/01/09 09:40:30;;;;;;;14.77;10.25;;;-2.10;29.20;;;;;;5090078;28;20390;-71
2024/01/09 09:43:00;;;;;;;15.20;10.10;;;-2.30;29.20;;;;;;5090100;28;20787;-71
2024/01/09 09:45:29;;;;;;;13.75;10.05;;;-2.30;29.50;;;;;;5090567;28;20430;-71
2024/01/09 09:47:55;;;;;;;13.63;9.20;;;-2.30;29.50;;;;;;5090107;28;20783;-71
2024/01/09 09:50:21;;;;;;;13.25;9.52;;;-2.30;28.30;;;;;;5090104;28;20380;-71
2024/01/09 09:52:47;;;;;;;13.90;9.57;;;-2.40;28.30;;;;;;5089901;28;20708;-71
2024/01/09 09:55:13;;;;;;;13.17;9.00;;;-2.40;28.40;;;;;;5089794;28;20946;-71
2024/01/09 09:57:39;;;;;;;15.40;9.70;;;-2.30;28.60;;;;;;5089772;28;20393;-71
2024/01/09 10:00:08;;;;;;;15.40;9.80;;;-2.20;28.90;;;;;;5090056;28;20907;-71
2024/01/09 10:02:36;;;;;;;13.25;9.48;;;-2.10;29.00;;;;;;5089927;28;20389;-71
2024/01/09 10:05:10;;;;;;;14.30;10.20;;;-2.10;28.20;;;;;;5090021;28;20390;-71
2024/01/09 10:07:38;;;;;;;14.95;9.60;;;-2.10;29.00;;;;;;5089459;28;20385;-71
2024/01/09 10:10:07;;;;;;;13.93;10.27;;;-2.00;28.60;;;;;;5089856;28;20457;-72
2024/01/09 10:12:33;;;;;;;13.43;9.20;;;-1.90;27.60;;;;;;5089939;28;20378;-71
2024/01/09 10:15:11;;;;;;;12.98;9.38;;;-1.90;27.50;;;;;;5090225;28;20884;-71
2024/01/09 10:17:38;;;;;;;12.13;8.90;;;-1.80;26.90;;;;;;5090216;28;20456;-72
2024/01/09 10:20:06;;;;;;;14.77;9.32;;;-1.80;26.40;;;;;;5089762;28;20390;-72
2024/01/09 10:22:35;;;;;;;14.65;9.68;;;-1.80;26.90;;;;;;5089881;28;20379;-72
2024/01/09 10:25:03;;;;;;;12.35;8.60;;;-1.70;27.40;;;;;;5091572;28;20382;-71
2024/01/09 10:27:28;;;;;;;14.73;9.63;;;-1.70;26.10;;;;;;5093413;28;20435;-71
2024/01/09 10:29:54;;;;;;;14.80;10.07;;;-1.60;27.60;;;;;;5093142;28;20830;-72
2024/01/09 10:32:20;;;;;;;17.40;10.20;;;-1.50;26.90;;;;;;5093316;28;20382;-72
2024/01/09 10:34:45;;;;;;;14.98;9.50;;;-1.40;28.50;;;;;;5093121;28;20426;-70
2024/01/09 10:37:13;;;;;;;14.90;9.33;;;-1.30;26.60;;;;;;5093402;28;20378;-72
2024/01/09 10:39:39;;;;;;;15.35;9.52;;;-1.20;26.30;;;;;;5093511;28;20390;-72
2024/01/09 10:42:09;;;;;;;14.67;9.43;;;-1.20;25.70;;;;;;5094206;28;20439;-71
2024/01/09 10:44:40;;;;;;;13.57;9.43;;;-1.10;25.80;;;;;;5075189;28;20390;-72
2024/01/09 10:47:10;;;;;;;12.93;8.75;;;-1.10;25.70;;;;;;5075030;28;20393;-71
2024/01/09 10:49:38;;;;;;;15.00;10.52;;;-1.10;24.20;;;;;;5075152;28;20385;-72
2024/01/09 10:52:06;;;;;;;13.20;8.70;;;-1.10;25.00;;;;;;5093016;28;20386;-72
2024/01/09 10:54:33;;;;;;;11.80;8.20;;;-1.10;25.40;;;;;;5092811;28;20492;-72
2024/01/09 10:57:02;;;;;;;12.07;8.07;;;-1.00;23.60;;;;;;5092618;28;20429;-72
2024/01/09 10:59:29;;;;;;;12.98;8.40;;;-1.00;23.00;;;;;;5074597;28;20390;-72
2024/01/09 11:01:54;;;;;;;11.55;8.45;;;-1.10;23.10;;;;;;5093114;28;20389;-72
2024/01/09 11:04:20;;;;;;;14.93;8.70;;;-1.10;23.00;;;;;;5093138;28;20387;-71
2024/01/09 11:06:49;;;;;;;13.93;8.57;;;-1.00;22.00;;;;;;5092788;28;20374;-71
2024/01/09 11:09:17;;;;;;;11.60;8.32;;;-1.10;22.70;;;;;;5092726;28;20384;-71
2024/01/09 11:11:43;;;;;;;11.37;7.80;;;-1.10;21.70;;;;;;5093856;28;20378;-72
2024/01/09 11:14:10;;;;;;;13.60;9.00;;;-1.20;21.80;;;;;;5093241;28;20736;-72
2024/01/09 11:16:40;;;;;;;12.70;8.20;;;-1.20;22.20;;;;;;5093315;28;20390;-72
2024/01/09 11:19:07;;;;;;;12.75;8.30;;;-1.10;21.80;;;;;;5074662;28;20433;-71
2024/01/09 11:21:33;;;;;;;11.85;8.38;;;-1.10;21.50;;;;;;5092923;28;20809;-71
2024/01/09 11:24:02;;;;;;;10.88;7.78;;;-1.10;21.20;;;;;;5093038;28;20393;-72
2024/01/09 11:26:32;;;;;;;11.98;8.57;;;-1.00;22.50;;;;;;5092750;28;20382;-72
2024/01/09 11:28:59;;;;;;;12.00;8.30;;;-0.80;22.50;;;;;;5093517;28;20385;-72
2024/01/09 11:31:27;;;;;;;11.73;7.72;;;-0.70;21.80;;;;;;5093797;28;20458;-72
2024/01/09 11:33:55;;;;;;;12.30;7.80;;;-0.70;20.80;;;;;;5093732;28;20490;-71
2024/01/09 11:36:26;;;;;;;13.50;8.70;;;-0.70;20.60;;;;;;5092680;28;20405;-72
2024/01/09 11:38:53;;;;;;;11.23;7.70;;;-0.70;20.50;;;;;;5092550;28;20378;-72
2024/01/09 11:41:22;;;;;;;13.43;8.25;;;-0.70;20.70;;;;;;5093024;28;20508;-71
2024/01/09 11:44:06;;;;;;;10.27;7.07;;;-0.60;19.70;;;;;;5074583;28;20382;-72
2024/01/09 11:46:37;;;;;;;12.93;7.13;;;-0.70;20.30;;;;;;5092378;28;20378;-71
2024/01/09 11:49:04;;;;;;;15.85;7.50;;;-0.70;19.70;;;;;;5092351;28;20378;-71
2024/01/09 11:51:33;;;;;;;10.45;7.50;;;-0.60;20.00;;;;;;5092427;28;20378;-71
2024/01/09 11:53:59;;;;;;;11.10;8.20;;;-0.60;20.60;;;;;;5090721;28;20764;-71
2024/01/09 11:56:25;;;;;;;10.15;7.45;;;-0.50;21.30;;;;;;5091622;28;20403;-71
2024/01/09 11:58:52;;;;;;;12.82;8.07;;;-0.50;21.20;;;;;;5091646;28;20793;-71
2024/01/09 12:01:23;;;;;;;10.90;7.63;;;-0.40;20.10;;;;;;5092725;28;20392;-71
2024/01/09 12:03:58;;;;;;;10.25;7.30;;;-0.40;20.30;;;;;;5092040;28;20720;-70
2024/01/09 12:06:26;;;;;;;10.82;7.30;;;-0.40;20.00;;;;;;5091543;28;20827;-72
2024/01/09 12:08:53;;;;;;;12.10;7.87;;;-0.40;19.30;;;;;;5073471;28;20451;-72
2024/01/09 12:11:19;;;;;;;11.90;7.53;;;-0.40;19.10;;;;;;5091105;28;20393;-71
2024/01/09 12:13:44;;;;;;;10.10;7.00;;;-0.30;20.40;;;;;;5073493;28;20913;-71
2024/01/09 12:16:19;;;;;;;11.70;7.47;;;-0.30;18.90;;;;;;5091779;28;20429;-71
2024/01/09 12:18:55;;;;;;;9.60;6.90;;;-0.20;20.10;;;;;;5091684;28;20703;-72
2024/01/09 12:21:24;;;;;;;14.23;6.60;;;-0.10;18.40;;;;;;5093164;28;20470;-72
2024/01/09 12:23:50;;;;;;;12.13;7.40;;;-0.20;18.60;;;;;;5091726;28;20382;-71
2024/01/09 12:26:17;;;;;;;9.55;6.97;;;-0.10;18.80;;;;;;5091810;28;20451;-71
2024/01/09 12:28:43;;;;;;;8.77;6.30;;;-0.10;17.90;;;;;;5073320;28;20386;-71
2024/01/09 12:31:09;;;;;;;11.57;6.90;;;-0.10;18.00;;;;;;5091266;28;20386;-71